createdAt,value
2018-11-04T00:01:12.885Z,101972.37
2018-11-04T00:03:42.422Z,101969.25
2018-11-04T00:06:10.940Z,101965.16
2018-11-04T00:08:39.655Z,101863.91
2018-11-04T00:11:08.180Z,101962.34
2018-11-04T00:13:37.506Z,101960.47
2018-11-04T00:16:05.975Z,101956.11
2018-11-04T00:18:34.688Z,101958.16
2018-11-04T00:21:04.051Z,101956.77
2018-11-04T00:23:32.559Z,101952.73
2018-11-04T00:26:01.031Z,101947.55
2018-11-04T00:28:29.696Z,101942.78
2018-11-04T00:30:58.627Z,101947.70
2018-11-04T00:33:27.915Z,101945.58
2018-11-04T00:35:56.794Z,101879.59
2018-11-04T00:38:25.391Z,101939.70
2018-11-04T00:40:56.193Z,101944.23
2018-11-04T00:43:25.393Z,101942.55
2018-11-04T00:45:54.167Z,101945.27
2018-11-04T00:48:22.796Z,101940.91
2018-11-04T00:50:51.508Z,101941.90
2018-11-04T00:53:20.143Z,101945.05
2018-11-04T00:55:55.703Z,101932.32
2018-11-04T00:58:25.546Z,101926.20
2018-11-04T01:00:54.319Z,101897.69
2018-11-04T01:03:22.911Z,101929.80
2018-11-04T01:05:51.654Z,101880.95
2018-11-04T01:08:20.155Z,101922.81
2018-11-04T01:10:48.990Z,101862.73
2018-11-04T01:13:17.470Z,101915.75
2018-11-04T01:15:46.094Z,101906.91
2018-11-04T01:18:14.766Z,101913.41
2018-11-04T01:20:43.393Z,101911.69
2018-11-04T01:23:12.155Z,101909.58
2018-11-04T01:25:40.734Z,101893.09
2018-11-04T01:28:09.885Z,101910.41
2018-11-04T01:30:38.401Z,101911.37
2018-11-04T01:33:07.251Z,101915.39
2018-11-04T01:35:35.766Z,101920.18
2018-11-04T01:38:04.500Z,101912.24
2018-11-04T01:40:33.075Z,101890.45
2018-11-04T01:43:01.535Z,101898.09
2018-11-04T01:45:30.304Z,101898.52
2018-11-04T01:47:58.868Z,101899.84
2018-11-04T01:50:27.627Z,101900.28
2018-11-04T01:52:56.071Z,101901.63
2018-11-04T01:55:24.687Z,101891.98
2018-11-04T01:57:53.155Z,101886.80
2018-11-04T02:00:21.653Z,101890.81
2018-11-04T02:02:50.355Z,101900.11
2018-11-04T02:05:18.798Z,101880.00
2018-11-04T02:07:47.441Z,101832.63
2018-11-04T02:10:16.203Z,101881.53
2018-11-04T02:12:44.879Z,101878.50
2018-11-04T02:15:13.983Z,101875.87
2018-11-04T02:17:42.543Z,101870.67
2018-11-04T02:20:12.347Z,101861.06
2018-11-04T02:22:41.345Z,101867.23
2018-11-04T02:25:11.370Z,101866.44
2018-11-04T02:27:40.249Z,101868.27
2018-11-04T02:30:11.326Z,101795.78
2018-11-04T02:32:40.155Z,101860.18
2018-11-04T02:35:08.867Z,101864.27
2018-11-04T02:37:37.506Z,101862.69
2018-11-04T02:40:06.507Z,101811.79
2018-11-04T02:42:36.043Z,101856.72
2018-11-04T02:45:04.897Z,101861.21
2018-11-04T02:47:33.369Z,101859.09
2018-11-04T02:50:02.011Z,101853.39
2018-11-04T02:52:30.502Z,101852.07
2018-11-04T02:54:59.137Z,101847.72
2018-11-04T02:57:28.067Z,101850.76
2018-11-04T02:59:56.601Z,101856.02
2018-11-04T03:02:25.388Z,101852.44
2018-11-04T03:04:53.851Z,101849.81
2018-11-04T03:07:22.576Z,101850.22
2018-11-04T03:09:51.039Z,101850.69
2018-11-04T03:12:19.543Z,101841.11
2018-11-04T03:14:48.093Z,101836.87
2018-11-04T03:17:16.582Z,101838.66
2018-11-04T03:19:45.402Z,101833.91
2018-11-04T03:22:13.962Z,101839.63
2018-11-04T03:24:42.813Z,101833.97
2018-11-04T03:27:11.208Z,101837.07
2018-11-04T03:29:39.719Z,101837.14
2018-11-04T03:32:08.351Z,101841.52
2018-11-04T03:34:36.878Z,101836.30
2018-11-04T03:37:06.071Z,101847.78
2018-11-04T03:39:34.569Z,101839.02
2018-11-04T03:42:03.221Z,101838.24
2018-11-04T03:44:31.750Z,101839.16
2018-11-04T03:47:00.570Z,101837.50
2018-11-04T03:49:29.081Z,101837.59
2018-11-04T03:51:57.683Z,101841.53
2018-11-04T03:54:26.304Z,101836.47
2018-11-04T03:56:54.763Z,101837.72
2018-11-04T03:59:23.577Z,101840.41
2018-11-04T04:01:52.102Z,101843.95
2018-11-04T04:04:20.922Z,101841.38
2018-11-04T04:06:49.472Z,101840.13
2018-11-04T04:09:18.067Z,101839.25
2018-11-04T04:11:46.728Z,101839.75
2018-11-04T04:14:15.251Z,101841.97
2018-11-04T04:16:44.015Z,101798.48
2018-11-04T04:19:12.579Z,101840.31
2018-11-04T04:21:41.414Z,101840.78
2018-11-04T04:24:09.867Z,101840.84
2018-11-04T04:26:38.473Z,101845.22
2018-11-04T04:29:07.116Z,101841.72
2018-11-04T04:31:35.651Z,101851.84
2018-11-04T04:34:04.486Z,101854.94
2018-11-04T04:36:32.930Z,101848.84
2018-11-04T04:39:01.657Z,101849.28
2018-11-04T04:41:30.132Z,101842.69
2018-11-04T04:43:58.652Z,101840.44
2018-11-04T04:46:27.215Z,101845.22
2018-11-04T04:48:55.671Z,101841.77
2018-11-04T04:51:24.479Z,101841.81
2018-11-04T04:53:53.046Z,101841.86
2018-11-04T04:56:21.747Z,101842.77
2018-11-04T04:58:51.030Z,101837.08
2018-11-04T05:01:19.719Z,101841.48
2018-11-04T05:03:48.198Z,101833.17
2018-11-04T05:06:16.815Z,101841.92
2018-11-04T05:08:45.467Z,101834.95
2018-11-04T05:11:13.983Z,101843.77
2018-11-04T05:13:42.584Z,101842.09
2018-11-04T05:16:11.104Z,101843.06
2018-11-04T05:18:39.764Z,101838.24
2018-11-04T05:21:08.279Z,101839.59
2018-11-04T05:23:39.691Z,101842.33
2018-11-04T05:26:17.650Z,101848.53
2018-11-04T05:28:48.100Z,101843.45
2018-11-04T05:31:17.664Z,101843.97
2018-11-04T05:33:46.391Z,101845.36
2018-11-04T05:36:15.033Z,101849.38
2018-11-04T05:38:43.472Z,101849.02
2018-11-04T05:41:12.747Z,101849.07
2018-11-04T05:43:41.267Z,101847.84
2018-11-04T05:46:10.127Z,101849.27
2018-11-04T05:48:38.656Z,101855.42
2018-11-04T05:51:07.303Z,101854.59
2018-11-04T05:53:39.203Z,101856.42
2018-11-04T05:56:09.424Z,101858.22
2018-11-04T05:58:38.076Z,101852.58
2018-11-04T06:01:07.395Z,101850.86
2018-11-04T06:03:36.042Z,101843.53
2018-11-04T06:06:04.763Z,101852.20
2018-11-04T06:08:35.519Z,101853.10
2018-11-04T06:11:05.526Z,101855.75
2018-11-04T06:13:33.974Z,101853.16
2018-11-04T06:16:02.542Z,101849.24
2018-11-04T06:18:31.003Z,101853.61
2018-11-04T06:20:59.571Z,101860.16
2018-11-04T06:23:28.330Z,101860.16
2018-11-04T06:25:56.932Z,101856.67
2018-11-04T06:28:25.740Z,101865.36
2018-11-04T06:30:54.197Z,101863.19
2018-11-04T06:33:22.752Z,101861.88
2018-11-04T06:35:51.260Z,101871.92
2018-11-04T06:38:19.723Z,101866.65
2018-11-04T06:40:48.490Z,101868.84
2018-11-04T06:43:17.009Z,101864.47
2018-11-04T06:45:45.610Z,101858.34
2018-11-04T06:48:14.125Z,101867.47
2018-11-04T06:50:42.631Z,101864.34
2018-11-04T06:53:11.119Z,101865.14
2018-11-04T06:55:39.718Z,101866.38
2018-11-04T06:58:08.447Z,101863.24
2018-11-04T07:00:36.929Z,101863.58
2018-11-04T07:03:05.660Z,101859.62
2018-11-04T07:05:34.139Z,101866.59
2018-11-04T07:08:02.788Z,101876.22
2018-11-04T07:10:31.244Z,101872.69
2018-11-04T07:12:59.823Z,101874.41
2018-11-04T07:15:29.098Z,101771.93
2018-11-04T07:17:57.643Z,101878.69
2018-11-04T07:20:26.462Z,101890.86
2018-11-04T07:22:55.190Z,101878.63
2018-11-04T07:25:23.828Z,101896.56
2018-11-04T07:27:52.324Z,101888.69
2018-11-04T07:30:20.828Z,101887.82
2018-11-04T07:32:49.450Z,101889.95
2018-11-04T07:35:17.964Z,101892.62
2018-11-04T07:37:46.644Z,101888.69
2018-11-04T07:40:15.151Z,101896.16
2018-11-04T07:42:43.704Z,101897.06
2018-11-04T07:45:12.201Z,101899.63
2018-11-04T07:47:41.200Z,101905.67
2018-11-04T07:50:12.672Z,101902.20
2018-11-04T07:52:41.572Z,101901.77
2018-11-04T07:55:10.620Z,101903.52
2018-11-04T07:57:41.139Z,101896.95
2018-11-04T08:00:12.823Z,101898.63
2018-11-04T08:02:41.611Z,101903.83
2018-11-04T08:05:11.250Z,101887.28
2018-11-04T08:07:41.287Z,101899.41
2018-11-04T08:10:12.417Z,101904.13
2018-11-04T08:12:41.183Z,101858.64
2018-11-04T08:15:10.537Z,101906.70
2018-11-04T08:17:39.783Z,101906.30
2018-11-04T08:20:09.170Z,101906.25
2018-11-04T08:22:37.800Z,101852.00
2018-11-04T08:25:06.794Z,101897.36
2018-11-04T08:27:35.656Z,101890.79
2018-11-04T08:30:04.467Z,101894.67
2018-11-04T08:32:33.111Z,101882.86
2018-11-04T08:35:01.583Z,101891.94
2018-11-04T08:37:30.131Z,101883.21
2018-11-04T08:39:59.163Z,101771.47
2018-11-04T08:42:27.539Z,101885.38
2018-11-04T08:44:56.339Z,101882.34
2018-11-04T08:47:24.806Z,101880.59
2018-11-04T08:49:53.553Z,101881.95
2018-11-04T08:52:22.165Z,101874.52
2018-11-04T08:54:50.641Z,101870.93
2018-11-04T08:57:19.123Z,101800.47
2018-11-04T08:59:47.669Z,101868.13
2018-11-04T09:02:16.510Z,101870.64
2018-11-04T09:04:44.978Z,101879.75
2018-11-04T09:07:13.629Z,101882.75
2018-11-04T09:09:42.319Z,101872.97
2018-11-04T09:12:10.883Z,101866.34
2018-11-04T09:14:39.451Z,101869.31
2018-11-04T09:17:08.524Z,101871.03
2018-11-04T09:19:37.288Z,101756.77
2018-11-04T09:22:06.598Z,101863.00
2018-11-04T09:24:35.040Z,101816.82
2018-11-04T09:27:03.753Z,101869.13
2018-11-04T09:29:32.452Z,101876.05
2018-11-04T09:32:01.062Z,101870.26
2018-11-04T09:34:29.667Z,101867.44
2018-11-04T09:36:58.319Z,101869.59
2018-11-04T09:39:26.987Z,101862.39
2018-11-04T09:41:55.719Z,101867.52
2018-11-04T09:44:24.300Z,101867.45
2018-11-04T09:46:53.126Z,101855.14
2018-11-04T09:49:21.655Z,101857.70
2018-11-04T09:51:50.270Z,101860.73
2018-11-04T09:54:18.881Z,101857.13
2018-11-04T09:56:47.464Z,101860.60
2018-11-04T09:59:16.355Z,101729.98
2018-11-04T10:01:45.045Z,101864.00
2018-11-04T10:04:13.850Z,101865.72
2018-11-04T10:06:42.409Z,101779.30
2018-11-04T10:09:11.719Z,101852.36
2018-11-04T10:11:40.602Z,101853.20
2018-11-04T10:14:09.170Z,101855.17
2018-11-04T10:16:38.107Z,101848.13
2018-11-04T10:19:06.796Z,101847.21
2018-11-04T10:21:35.471Z,101797.07
2018-11-04T10:24:03.991Z,101848.70
2018-11-04T10:26:32.871Z,101846.55
2018-11-04T10:29:01.470Z,101849.66
2018-11-04T10:31:30.191Z,101854.02
2018-11-04T10:33:58.768Z,101845.27
2018-11-04T10:36:27.267Z,101848.70
2018-11-04T10:38:56.044Z,101838.87
2018-11-04T10:41:24.646Z,101843.75
2018-11-04T10:43:53.461Z,101779.63
2018-11-04T10:46:22.035Z,101842.08
2018-11-04T10:48:50.648Z,101830.87
2018-11-04T10:51:19.282Z,101829.55
2018-11-04T10:53:47.872Z,101829.06
2018-11-04T10:56:16.451Z,101816.50
2018-11-04T10:58:45.052Z,101822.48
2018-11-04T11:01:13.719Z,101820.25
2018-11-04T11:03:42.214Z,101820.25
2018-11-04T11:06:10.916Z,101818.77
2018-11-04T11:08:39.395Z,101812.02
2018-11-04T11:11:08.051Z,101808.81
2018-11-04T11:13:36.657Z,101822.13
2018-11-04T11:16:05.352Z,101811.38
2018-11-04T11:18:33.958Z,101798.42
2018-11-04T11:21:02.559Z,101805.53
2018-11-04T11:23:31.358Z,101801.27
2018-11-04T11:25:59.954Z,101792.27
2018-11-04T11:28:28.690Z,101789.41
2018-11-04T11:30:57.287Z,101790.33
2018-11-04T11:33:25.806Z,101789.98
2018-11-04T11:35:54.307Z,101710.41
2018-11-04T11:38:22.802Z,101783.69
2018-11-04T11:40:51.758Z,101773.05
2018-11-04T11:43:20.267Z,101777.70
2018-11-04T11:45:49.029Z,101765.53
2018-11-04T11:48:17.871Z,101776.29
2018-11-04T11:50:46.403Z,101772.42
2018-11-04T11:53:15.011Z,101760.99
2018-11-04T11:55:43.518Z,101758.35
2018-11-04T11:58:12.323Z,101760.52
2018-11-04T12:00:40.805Z,101749.48
2018-11-04T12:03:09.451Z,101758.17
2018-11-04T12:05:37.971Z,101754.40
2018-11-04T12:08:06.628Z,101754.11
2018-11-04T12:10:35.178Z,101746.52
2018-11-04T12:13:03.816Z,101748.37
2018-11-04T12:15:32.599Z,101737.91
2018-11-04T12:18:01.148Z,101735.28
2018-11-04T12:20:29.919Z,101735.98
2018-11-04T12:22:58.376Z,101743.40
2018-11-04T12:25:27.105Z,101729.77
2018-11-04T12:27:55.645Z,101728.99
2018-11-04T12:30:24.356Z,101735.19
2018-11-04T12:32:52.955Z,101725.81
2018-11-04T12:35:21.603Z,101724.95
2018-11-04T12:37:50.470Z,101714.80
2018-11-04T12:40:18.991Z,101706.00
2018-11-04T12:42:47.747Z,101708.54
2018-11-04T12:45:16.230Z,101693.66
2018-11-04T12:47:44.828Z,101703.17
2018-11-04T12:50:13.674Z,101705.28
2018-11-04T12:52:42.321Z,101697.80
2018-11-04T12:55:11.061Z,101676.85
2018-11-04T12:57:39.644Z,101691.70
2018-11-04T13:00:11.038Z,101697.99
2018-11-04T13:02:39.534Z,101695.45
2018-11-04T13:05:09.562Z,101685.65
2018-11-04T13:07:38.042Z,101683.98
2018-11-04T13:10:09.008Z,101687.11
2018-11-04T13:12:37.874Z,101683.98
2018-11-04T13:15:07.175Z,101684.86
2018-11-04T13:17:35.783Z,101685.00
2018-11-04T13:20:04.732Z,101683.63
2018-11-04T13:22:33.295Z,101681.05
2018-11-04T13:25:02.251Z,101679.84
2018-11-04T13:27:30.776Z,101683.99
2018-11-04T13:29:59.359Z,101679.73
2018-11-04T13:32:28.407Z,101674.56
2018-11-04T13:34:57.004Z,101670.66
2018-11-04T13:37:25.754Z,101672.22
2018-11-04T13:39:54.241Z,101671.43
2018-11-04T13:42:23.151Z,101661.38
2018-11-04T13:44:51.650Z,101671.91
2018-11-04T13:47:20.369Z,101669.42
2018-11-04T13:49:48.922Z,101660.83
2018-11-04T13:52:18.299Z,101656.58
2018-11-04T13:54:47.380Z,101659.30
2018-11-04T13:57:16.192Z,101654.62
2018-11-04T13:59:44.869Z,101654.13
2018-11-04T14:02:13.367Z,101657.64
2018-11-04T14:04:42.002Z,101644.84
2018-11-04T14:07:10.746Z,101643.23
2018-11-04T14:09:39.544Z,101648.69
2018-11-04T14:12:08.178Z,101650.52
2018-11-04T14:14:36.699Z,101647.15
2018-11-04T14:17:05.510Z,101605.75
2018-11-04T14:19:34.069Z,101651.16
2018-11-04T14:22:02.867Z,101595.34
2018-11-04T14:24:31.428Z,101652.25
2018-11-04T14:27:00.166Z,101648.01
2018-11-04T14:29:28.623Z,101648.61
2018-11-04T14:31:57.204Z,101639.48
2018-11-04T14:34:25.833Z,101640.92
2018-11-04T14:36:54.308Z,101642.60
2018-11-04T14:39:23.114Z,101636.50
2018-11-04T14:41:51.606Z,101631.02
2018-11-04T14:44:20.489Z,101639.39
2018-11-04T14:49:24.000Z,101630.55
2018-11-04T14:51:52.521Z,101628.97
2018-11-04T14:54:21.267Z,101625.45
2018-11-04T14:56:49.813Z,101625.02
2018-11-04T14:59:18.818Z,101624.54
2018-11-04T15:01:47.581Z,101620.20
2018-11-04T15:04:16.320Z,101618.45
2018-11-04T15:06:44.897Z,101615.33
2018-11-04T15:09:13.527Z,101618.05
2018-11-04T15:11:42.103Z,101614.62
2018-11-04T15:14:10.707Z,101615.55
2018-11-04T15:16:39.679Z,101616.89
2018-11-04T15:19:08.215Z,101611.67
2018-11-04T15:21:36.958Z,101555.67
2018-11-04T15:24:05.694Z,101605.70
2018-11-04T15:26:34.303Z,101592.72
2018-11-04T15:29:02.796Z,101592.36
2018-11-04T15:31:31.308Z,101586.74
2018-11-04T15:34:00.149Z,101525.22
2018-11-04T15:36:28.623Z,101585.51
2018-11-04T15:38:57.733Z,101576.95
2018-11-04T15:41:26.171Z,101589.62
2018-11-04T15:43:55.093Z,101586.07
2018-11-04T15:46:23.571Z,101583.91
2018-11-04T15:48:52.188Z,101586.11
2018-11-04T15:51:20.827Z,101572.92
2018-11-04T15:53:49.387Z,101584.31
2018-11-04T15:56:18.494Z,101577.74
2018-11-04T15:58:47.022Z,101567.58
2018-11-04T16:01:15.958Z,101569.73
2018-11-04T16:03:44.439Z,101567.50
2018-11-04T16:06:13.126Z,101569.21
2018-11-04T16:08:41.826Z,101570.05
2018-11-04T16:11:10.352Z,101569.13
2018-11-04T16:13:39.225Z,101555.19
2018-11-04T16:16:07.810Z,101563.83
2018-11-04T16:18:36.727Z,101566.85
2018-11-04T16:21:05.392Z,101550.59
2018-11-04T16:23:34.211Z,101542.27
2018-11-04T16:26:02.797Z,101546.61
2018-11-04T16:28:31.380Z,101546.13
2018-11-04T16:30:59.895Z,101547.80
2018-11-04T16:33:28.574Z,101544.72
2018-11-04T16:35:58.910Z,101429.74
2018-11-04T16:38:27.482Z,101543.72
2018-11-04T16:40:56.299Z,101537.06
2018-11-04T16:43:24.947Z,101542.23
2018-11-04T16:45:53.512Z,101538.72
2018-11-04T16:48:22.037Z,101533.45
2018-11-04T16:50:50.644Z,101540.44
2018-11-04T16:53:19.185Z,101531.14
2018-11-04T16:55:47.768Z,101532.37
2018-11-04T16:58:16.694Z,101538.45
2018-11-04T17:00:45.194Z,101531.36
2018-11-04T17:03:13.904Z,101538.81
2018-11-04T17:05:42.620Z,101539.16
2018-11-04T17:08:11.035Z,101528.64
2018-11-04T17:10:39.624Z,101533.91
2018-11-04T17:13:08.095Z,101540.91
2018-11-04T17:15:36.949Z,101542.11
2018-11-04T17:18:05.819Z,101541.62
2018-11-04T17:20:34.479Z,101538.06
2018-11-04T17:23:02.979Z,101545.03
2018-11-04T17:25:31.755Z,101530.08
2018-11-04T17:28:01.127Z,101537.14
2018-11-04T17:30:29.787Z,101531.83
2018-11-04T17:32:58.352Z,101536.13
2018-11-04T17:35:26.976Z,101524.73
2018-11-04T17:37:55.703Z,101460.16
2018-11-04T17:40:24.257Z,101515.95
2018-11-04T17:42:52.963Z,101465.94
2018-11-04T17:45:21.476Z,101514.02
2018-11-04T17:47:50.182Z,101513.62
2018-11-04T17:50:19.709Z,101510.98
2018-11-04T17:52:48.390Z,101516.65
2018-11-04T17:55:17.225Z,101464.09
2018-11-04T17:57:45.963Z,101515.77
2018-11-04T18:00:16.099Z,101513.52
2018-11-04T18:02:44.779Z,101520.50
2018-11-04T18:05:14.030Z,101520.41
2018-11-04T18:07:43.200Z,101519.00
2018-11-04T18:10:13.035Z,101516.37
2018-11-04T18:12:41.675Z,101521.18
2018-11-04T18:15:11.738Z,101515.42
2018-11-04T18:17:40.323Z,101521.48
2018-11-04T18:20:10.183Z,101517.48
2018-11-04T18:22:39.139Z,101519.67
2018-11-04T18:27:46.939Z,101520.41
2018-11-04T18:30:18.573Z,101521.24
2018-11-04T18:32:47.894Z,101526.47
2018-11-04T18:35:20.632Z,101516.76
2018-11-04T18:37:49.312Z,101521.10
2018-11-04T18:40:20.692Z,101523.34
2018-11-04T18:42:49.643Z,101525.05
2018-11-04T18:45:25.200Z,101526.37
2018-11-04T18:48:01.017Z,101525.97
2018-11-04T18:50:37.554Z,101522.52
2018-11-04T18:53:09.919Z,101468.75
2018-11-04T18:55:44.563Z,101530.51
2018-11-04T18:58:18.315Z,101528.70
2018-11-04T19:00:46.902Z,101527.38
2018-11-04T19:03:15.475Z,101526.98
2018-11-04T19:05:48.175Z,101524.84
2018-11-04T19:08:17.104Z,101519.58
2018-11-04T19:10:45.891Z,101510.86
2018-11-04T19:13:15.198Z,101523.97
2018-11-04T19:15:45.834Z,101524.02
2018-11-04T19:18:15.929Z,101524.89
2018-11-04T19:20:44.524Z,101526.30
2018-11-04T19:23:13.347Z,101523.23
2018-11-04T19:25:41.999Z,101522.00
2018-11-04T19:28:10.976Z,101516.21
2018-11-04T19:30:39.611Z,101523.27
2018-11-04T19:33:08.956Z,101520.64
2018-11-04T19:35:37.543Z,101511.05
2018-11-04T19:38:06.683Z,101517.18
2018-11-04T19:40:35.440Z,101518.94
2018-11-04T19:43:04.189Z,101508.41
2018-11-04T19:45:32.774Z,101510.22
2018-11-04T19:48:01.381Z,101516.32
2018-11-04T19:50:30.319Z,101451.81
2018-11-04T19:52:58.968Z,101511.20
2018-11-04T19:55:28.285Z,101513.03
2018-11-04T19:57:58.063Z,101508.66
2018-11-04T20:00:26.780Z,101507.86
2018-11-04T20:02:55.351Z,101505.28
2018-11-04T20:05:24.033Z,101501.37
2018-11-04T20:07:52.605Z,101500.45
2018-11-04T20:10:21.387Z,101503.48
2018-11-04T20:12:55.464Z,101368.23
2018-11-04T20:15:24.543Z,101443.80
2018-11-04T20:17:53.062Z,101496.69
2018-11-04T20:20:25.179Z,101500.24
2018-11-04T20:22:53.987Z,101498.15
2018-11-04T20:25:27.962Z,101496.88
2018-11-04T20:27:56.622Z,101500.00
2018-11-04T20:30:25.239Z,101495.20
2018-11-04T20:32:59.152Z,101496.17
2018-11-04T20:35:27.650Z,101502.23
2018-11-04T20:37:56.536Z,101498.80
2018-11-04T20:40:30.472Z,101498.85
2018-11-04T20:42:59.342Z,101494.95
2018-11-04T20:45:27.906Z,101495.44
2018-11-04T20:48:01.892Z,101489.44
2018-11-04T20:50:35.787Z,101499.69
2018-11-04T20:53:04.680Z,101494.86
2018-11-04T20:55:38.645Z,101496.05
2018-11-04T20:58:07.489Z,101491.61
2018-11-04T21:00:35.943Z,101483.63
2018-11-04T21:03:04.743Z,101483.09
2018-11-04T21:05:33.318Z,101478.22
2018-11-04T21:08:02.110Z,101476.55
2018-11-04T21:10:30.595Z,101471.30
2018-11-04T21:12:59.111Z,101476.55
2018-11-04T21:15:27.707Z,101469.55
2018-11-04T21:17:56.199Z,101468.75
2018-11-04T21:20:24.981Z,101346.20
2018-11-04T21:22:53.513Z,101464.99
2018-11-04T21:25:22.313Z,101472.49
2018-11-04T21:27:50.874Z,101480.39
2018-11-04T21:30:19.449Z,101474.20
2018-11-04T21:32:48.158Z,101470.66
2018-11-04T21:35:16.671Z,101477.53
2018-11-04T21:37:45.315Z,101444.70
2018-11-04T21:40:13.752Z,101464.62
2018-11-04T21:42:42.873Z,101475.36
2018-11-04T21:45:12.751Z,101470.00
2018-11-04T21:47:41.659Z,101465.55
2018-11-04T21:50:11.002Z,101466.34
2018-11-04T21:52:39.898Z,101464.97
2018-11-04T21:55:10.355Z,101471.05
2018-11-04T21:57:39.472Z,101465.30
2018-11-04T22:00:10.210Z,101458.29
2018-11-04T22:02:39.223Z,101471.27
2018-11-04T22:05:08.280Z,101466.82
2018-11-04T22:07:37.114Z,101417.83
2018-11-04T22:10:07.908Z,101470.27
2018-11-04T22:12:36.691Z,101478.08
2018-11-04T22:15:05.243Z,101479.39
2018-11-04T22:17:33.989Z,101476.23
2018-11-04T22:20:02.544Z,101462.28
2018-11-04T22:22:31.063Z,101474.42
2018-11-04T22:24:59.652Z,101462.97
2018-11-04T22:27:28.162Z,101464.68
2018-11-04T22:29:56.899Z,101476.04
2018-11-04T22:32:25.491Z,101466.42
2018-11-04T22:34:54.231Z,101469.50
2018-11-04T22:37:22.883Z,101468.53
2018-11-04T22:39:51.526Z,101464.13
2018-11-04T22:42:20.112Z,101475.94
2018-11-04T22:44:48.607Z,101468.53
2018-11-04T22:47:17.304Z,101459.21
2018-11-04T22:49:45.787Z,101459.64
2018-11-04T22:52:14.731Z,101467.54
2018-11-04T22:54:43.270Z,101468.86
2018-11-04T22:57:11.787Z,101462.28
2018-11-04T22:59:40.259Z,101448.78
2018-11-04T23:02:08.898Z,101461.25
2018-11-04T23:04:42.711Z,101452.42
2018-11-04T23:07:11.480Z,101450.27
2018-11-04T23:09:40.032Z,101449.79
2018-11-04T23:12:08.618Z,101447.98
2018-11-04T23:14:37.156Z,101440.52
2018-11-04T23:17:05.655Z,101434.52
2018-11-04T23:19:34.629Z,101429.94
2018-11-04T23:22:03.212Z,101436.13
2018-11-04T23:24:31.982Z,101431.67
2018-11-04T23:27:00.557Z,101438.66
2018-11-04T23:29:29.180Z,101435.10
2018-11-04T23:31:57.743Z,101438.21
2018-11-04T23:34:26.275Z,101436.47
2018-11-04T23:36:55.103Z,101437.83
2018-11-04T23:39:23.639Z,101443.87
2018-11-04T23:41:52.619Z,101443.83
2018-11-04T23:44:21.135Z,101441.19
2018-11-04T23:46:49.681Z,101438.95
2018-11-04T23:49:18.174Z,101439.88
2018-11-04T23:51:46.850Z,101428.94
2018-11-04T23:54:15.444Z,101430.59
2018-11-04T23:56:43.986Z,101424.02
2018-11-04T23:59:12.678Z,101428.84
